createdAt,value
2018-03-15T00:02:25.707Z,86.90
2018-03-15T00:04:53.661Z,86.82
2018-03-15T00:07:21.737Z,86.83
2018-03-15T00:09:49.695Z,86.63
2018-03-15T00:12:17.618Z,86.37
2018-03-15T00:14:45.566Z,86.34
2018-03-15T00:17:13.662Z,87.06
2018-03-15T00:19:41.583Z,86.48
2018-03-15T00:22:09.581Z,86.25
2018-03-15T00:24:37.494Z,86.12
2018-03-15T00:27:05.557Z,86.06
2018-03-15T00:29:33.484Z,85.74
2018-03-15T00:32:01.417Z,85.45
2018-03-15T00:34:29.500Z,85.26
2018-03-15T00:36:57.429Z,85.48
2018-03-15T00:39:25.375Z,85.00
2018-03-15T00:41:54.155Z,84.82
2018-03-15T00:44:22.886Z,84.68
2018-03-15T00:46:50.830Z,84.43
2018-03-15T00:49:18.751Z,84.39
2018-03-15T00:51:46.708Z,84.02
2018-03-15T00:54:14.624Z,84.15
2018-03-15T00:56:42.572Z,84.52
2018-03-15T00:59:10.498Z,84.62
2018-03-15T01:01:38.520Z,83.76
2018-03-15T01:04:06.458Z,84.57
2018-03-15T01:06:34.495Z,85.28
2018-03-15T01:09:02.436Z,84.52
2018-03-15T01:11:30.344Z,84.02
2018-03-15T01:13:58.297Z,84.63
2018-03-15T01:16:26.239Z,84.16
2018-03-15T01:18:54.151Z,84.21
2018-03-15T01:21:22.113Z,84.04
2018-03-15T01:23:50.024Z,83.64
2018-03-15T01:26:17.974Z,83.76
2018-03-15T01:28:46.479Z,83.66
2018-03-15T01:31:14.791Z,83.97
2018-03-15T01:33:42.806Z,83.18
2018-03-15T01:36:10.812Z,82.96
2018-03-15T01:38:38.784Z,83.29
2018-03-15T01:41:06.727Z,83.17
2018-03-15T01:43:34.716Z,82.81
2018-03-15T01:46:02.654Z,83.18
2018-03-15T01:48:30.640Z,82.80
2018-03-15T01:50:58.597Z,82.68
2018-03-15T01:53:26.512Z,83.26
2018-03-15T01:55:54.439Z,84.00
2018-03-15T01:58:22.380Z,83.93
2018-03-15T02:00:50.373Z,83.70
2018-03-15T02:03:18.345Z,83.56
2018-03-15T02:05:46.320Z,83.61
2018-03-15T02:08:14.243Z,83.26
2018-03-15T02:10:42.179Z,83.38
2018-03-15T02:13:10.111Z,83.56
2018-03-15T02:15:38.089Z,83.15
2018-03-15T02:18:06.072Z,83.16
2018-03-15T02:20:33.997Z,82.80
2018-03-15T02:23:01.948Z,83.42
2018-03-15T02:25:29.865Z,83.18
2018-03-15T02:27:57.806Z,82.80
2018-03-15T02:30:25.762Z,83.01
2018-03-15T02:32:53.695Z,82.37
2018-03-15T02:35:21.626Z,82.70
2018-03-15T02:37:49.637Z,82.62
2018-03-15T02:40:17.647Z,82.02
2018-03-15T02:42:46.305Z,83.03
2018-03-15T02:45:14.226Z,83.26
2018-03-15T02:47:42.171Z,83.32
2018-03-15T02:50:10.215Z,82.97
2018-03-15T02:52:38.176Z,82.66
2018-03-15T02:55:06.100Z,83.01
2018-03-15T02:57:34.016Z,82.24
2018-03-15T03:00:01.958Z,82.96
2018-03-15T03:02:29.901Z,82.58
2018-03-15T03:04:57.916Z,82.52
2018-03-15T03:07:25.849Z,83.23
2018-03-15T03:09:53.777Z,83.67
2018-03-15T03:12:21.707Z,83.32
2018-03-15T03:14:49.742Z,83.05
2018-03-15T03:17:17.666Z,82.75
2018-03-15T03:19:45.772Z,82.60
2018-03-15T03:22:13.677Z,83.50
2018-03-15T03:24:42.163Z,83.25
2018-03-15T03:27:10.115Z,83.25
2018-03-15T03:29:38.063Z,83.36
2018-03-15T03:32:05.996Z,83.80
2018-03-15T03:34:33.981Z,83.15
2018-03-15T03:37:01.975Z,83.55
2018-03-15T03:39:29.957Z,83.89
2018-03-15T03:41:57.874Z,83.62
2018-03-15T03:44:25.812Z,83.58
2018-03-15T03:46:53.762Z,83.50
2018-03-15T03:49:21.688Z,83.00
2018-03-15T03:51:50.016Z,82.68
2018-03-15T03:54:17.965Z,82.87
2018-03-15T03:56:45.953Z,82.25
2018-03-15T03:59:13.982Z,82.71
2018-03-15T04:01:41.963Z,83.55
2018-03-15T04:04:10.070Z,83.72
2018-03-15T04:06:38.090Z,84.15
2018-03-15T04:09:06.044Z,84.27
2018-03-15T04:11:33.982Z,83.99
2018-03-15T04:14:01.937Z,84.32
2018-03-15T04:16:29.915Z,84.56
2018-03-15T04:18:57.873Z,84.37
2018-03-15T04:21:25.856Z,84.45
2018-03-15T04:23:53.777Z,84.75
2018-03-15T04:26:21.865Z,85.10
2018-03-15T04:28:49.840Z,84.20
2018-03-15T04:31:17.780Z,84.51
2018-03-15T04:33:45.698Z,85.18
2018-03-15T04:36:13.644Z,84.44
2018-03-15T04:38:41.575Z,84.35
2018-03-15T04:41:09.509Z,84.55
2018-03-15T04:43:37.472Z,87.19
2018-03-15T04:46:05.400Z,84.15
2018-03-15T04:48:33.321Z,83.78
2018-03-15T04:51:01.425Z,83.65
2018-03-15T04:53:29.564Z,84.22
2018-03-15T04:55:57.467Z,85.71
2018-03-15T04:58:25.525Z,84.26
2018-03-15T05:00:53.536Z,83.50
2018-03-15T05:03:21.464Z,83.06
2018-03-15T05:05:49.402Z,83.30
2018-03-15T05:08:17.340Z,83.56
2018-03-15T05:10:45.260Z,82.33
2018-03-15T05:13:13.198Z,82.27
2018-03-15T05:15:41.142Z,81.78
2018-03-15T05:18:09.282Z,80.60
2018-03-15T05:20:37.230Z,81.04
2018-03-15T05:23:05.183Z,80.74
2018-03-15T05:25:33.129Z,80.53
2018-03-15T05:28:01.088Z,79.37
2018-03-15T05:30:29.024Z,79.02
2018-03-15T05:32:57.025Z,79.04
2018-03-15T05:35:24.981Z,78.60
2018-03-15T05:37:52.980Z,77.98
2018-03-15T05:40:21.894Z,78.22
2018-03-15T05:42:49.822Z,77.53
2018-03-15T05:45:18.414Z,76.86
2018-03-15T05:47:46.337Z,77.06
2018-03-15T05:50:14.260Z,76.89
2018-03-15T05:52:42.195Z,76.21
2018-03-15T05:55:10.115Z,75.92
2018-03-15T05:57:38.188Z,75.11
2018-03-15T06:00:06.130Z,75.55
2018-03-15T06:02:34.042Z,75.50
2018-03-15T06:05:01.964Z,74.52
2018-03-15T06:07:29.944Z,74.48
2018-03-15T06:09:57.834Z,75.20
2018-03-15T06:12:25.759Z,74.59
2018-03-15T06:14:53.693Z,75.08
2018-03-15T06:17:21.746Z,74.45
2018-03-15T06:19:49.652Z,75.12
2018-03-15T06:22:17.627Z,74.80
2018-03-15T06:24:45.540Z,74.75
2018-03-15T06:27:13.451Z,75.14
2018-03-15T06:29:41.444Z,75.09
2018-03-15T06:32:09.374Z,74.85
2018-03-15T06:34:37.314Z,74.73
2018-03-15T06:37:05.273Z,74.96
2018-03-15T06:39:33.203Z,74.53
2018-03-15T06:42:01.214Z,74.59
2018-03-15T06:44:29.181Z,74.65
2018-03-15T06:46:57.224Z,74.39
2018-03-15T06:49:25.133Z,73.58
2018-03-15T06:51:53.109Z,73.73
2018-03-15T06:54:21.019Z,73.21
2018-03-15T06:56:48.957Z,72.91
2018-03-15T06:59:16.858Z,72.96
2018-03-15T07:01:44.791Z,72.60
2018-03-15T07:04:12.729Z,73.09
2018-03-15T07:06:40.660Z,72.99
2018-03-15T07:09:08.590Z,71.57
2018-03-15T07:11:36.479Z,70.84
2018-03-15T07:14:04.405Z,70.61
2018-03-15T07:16:32.584Z,71.12
2018-03-15T07:19:00.476Z,70.82
2018-03-15T07:21:28.391Z,68.77
2018-03-15T07:23:56.315Z,67.16
2018-03-15T07:26:24.225Z,67.52
2018-03-15T07:28:52.182Z,66.01
2018-03-15T07:31:20.086Z,65.81
2018-03-15T07:33:48.034Z,64.11
2018-03-15T07:36:15.944Z,64.23
2018-03-15T07:38:43.879Z,63.27
2018-03-15T07:41:11.781Z,61.87
2018-03-15T07:43:39.745Z,61.51
2018-03-15T07:46:07.717Z,60.61
2018-03-15T07:48:35.686Z,59.74
2018-03-15T07:51:03.717Z,59.00
2018-03-15T07:53:31.687Z,57.90
2018-03-15T07:55:59.728Z,56.84
2018-03-15T07:58:27.664Z,57.38
2018-03-15T08:00:55.596Z,57.83
2018-03-15T08:03:23.538Z,57.32
2018-03-15T08:05:51.454Z,57.27
2018-03-15T08:08:19.386Z,56.93
2018-03-15T08:10:47.317Z,56.11
2018-03-15T08:13:15.253Z,55.07
2018-03-15T08:15:43.184Z,55.30
2018-03-15T08:18:11.098Z,54.91
2018-03-15T08:20:39.023Z,53.68
2018-03-15T08:23:06.973Z,53.10
2018-03-15T08:25:34.920Z,53.79
2018-03-15T08:28:02.853Z,53.36
2018-03-15T08:30:30.796Z,52.48
2018-03-15T08:32:58.726Z,52.95
2018-03-15T08:35:26.685Z,51.65
2018-03-15T08:37:54.625Z,50.41
2018-03-15T08:40:22.548Z,49.79
2018-03-15T08:42:50.513Z,48.95
2018-03-15T08:45:18.453Z,48.52
2018-03-15T08:47:46.412Z,47.59
2018-03-15T08:50:14.341Z,48.80
2018-03-15T08:52:42.311Z,48.50
2018-03-15T08:55:10.238Z,50.21
2018-03-15T08:57:38.174Z,54.88
2018-03-15T09:00:06.111Z,53.47
2018-03-15T09:02:34.042Z,53.33
2018-03-15T09:05:01.985Z,54.59
2018-03-15T09:07:29.890Z,57.01
2018-03-15T09:09:57.829Z,57.29
2018-03-15T09:12:25.728Z,57.05
2018-03-15T09:14:53.693Z,56.62
2018-03-15T09:17:21.629Z,55.12
2018-03-15T09:19:49.548Z,53.24
2018-03-15T09:22:17.474Z,54.57
2018-03-15T09:24:45.409Z,53.56
2018-03-15T09:27:13.314Z,51.43
2018-03-15T09:29:41.253Z,50.87
2018-03-15T09:32:09.221Z,50.86
2018-03-15T09:34:37.205Z,49.85
2018-03-15T09:37:05.134Z,49.92
2018-03-15T09:39:33.068Z,51.23
2018-03-15T09:42:00.996Z,51.24
2018-03-15T09:44:28.933Z,51.03
2018-03-15T09:46:57.001Z,51.85
2018-03-15T09:49:24.952Z,51.15
2018-03-15T09:51:52.851Z,51.92
2018-03-15T09:54:20.805Z,51.77
2018-03-15T09:56:48.732Z,52.43
2018-03-15T09:59:16.683Z,53.63
2018-03-15T10:01:44.695Z,53.88
2018-03-15T10:04:12.620Z,55.58
2018-03-15T10:06:40.591Z,56.10
2018-03-15T10:09:08.597Z,56.57
2018-03-15T10:11:36.573Z,56.78
2018-03-15T10:14:04.495Z,57.82
2018-03-15T10:16:32.413Z,58.57
2018-03-15T10:19:00.406Z,58.04
2018-03-15T10:21:28.476Z,58.33
2018-03-15T10:23:56.398Z,58.88
2018-03-15T10:26:24.328Z,60.09
2018-03-15T10:28:52.281Z,60.21
2018-03-15T10:31:20.236Z,60.21
2018-03-15T10:33:48.212Z,58.30
2018-03-15T10:36:16.146Z,59.69
2018-03-15T10:38:44.081Z,59.38
2018-03-15T10:41:12.001Z,59.58
2018-03-15T10:43:40.011Z,59.73
2018-03-15T10:46:08.021Z,60.47
2018-03-15T10:48:36.188Z,60.58
2018-03-15T10:51:04.485Z,60.52
2018-03-15T10:53:32.669Z,59.70
2018-03-15T10:56:00.617Z,59.26
2018-03-15T10:58:29.061Z,60.90
2018-03-15T11:01:02.559Z,60.24
2018-03-15T11:03:37.293Z,60.44
2018-03-15T11:06:09.941Z,59.80
2018-03-15T11:08:37.961Z,59.75
2018-03-15T11:11:07.774Z,60.79
2018-03-15T11:13:35.700Z,60.44
2018-03-15T11:16:03.641Z,59.89
2018-03-15T11:18:31.582Z,59.84
2018-03-15T11:20:59.498Z,60.75
2018-03-15T11:23:27.412Z,60.66
2018-03-15T11:25:55.443Z,60.78
2018-03-15T11:28:23.370Z,61.09
2018-03-15T11:30:51.323Z,60.91
2018-03-15T11:33:19.245Z,60.68
2018-03-15T11:35:47.226Z,60.70
2018-03-15T11:38:15.125Z,60.90
2018-03-15T11:40:43.070Z,61.12
2018-03-15T11:43:10.998Z,60.83
2018-03-15T11:45:38.968Z,59.98
2018-03-15T11:48:06.934Z,60.78
2018-03-15T11:50:34.889Z,60.12
2018-03-15T11:53:03.052Z,60.09
2018-03-15T11:55:31.118Z,60.49
2018-03-15T11:57:59.065Z,60.17
2018-03-15T12:00:26.990Z,59.65
2018-03-15T12:02:54.920Z,60.73
2018-03-15T12:05:22.970Z,61.05
2018-03-15T12:07:51.725Z,61.17
2018-03-15T12:10:19.664Z,60.33
2018-03-15T12:12:47.609Z,61.76
2018-03-15T12:15:15.576Z,61.05
2018-03-15T12:17:43.612Z,60.63
2018-03-15T12:20:11.616Z,60.93
2018-03-15T12:22:39.542Z,61.12
2018-03-15T12:25:07.461Z,61.13
2018-03-15T12:27:35.467Z,60.97
2018-03-15T12:30:03.425Z,60.85
2018-03-15T12:32:31.381Z,60.31
2018-03-15T12:34:59.371Z,61.13
2018-03-15T12:37:27.314Z,61.76
2018-03-15T12:39:55.372Z,62.31
2018-03-15T12:42:23.278Z,62.15
2018-03-15T12:44:51.299Z,62.11
2018-03-15T12:47:19.185Z,61.70
2018-03-15T12:49:47.140Z,62.11
2018-03-15T12:52:15.062Z,62.89
2018-03-15T12:54:42.978Z,63.63
2018-03-15T12:57:11.015Z,63.79
2018-03-15T12:59:38.985Z,62.52
2018-03-15T13:02:06.919Z,64.18
2018-03-15T13:04:34.852Z,64.30
2018-03-15T13:07:02.809Z,64.37
2018-03-15T13:09:30.870Z,63.82
2018-03-15T13:11:58.835Z,64.92
2018-03-15T13:14:26.730Z,64.96
2018-03-15T13:16:54.736Z,64.21
2018-03-15T13:19:25.027Z,63.42
2018-03-15T13:21:52.961Z,64.18
2018-03-15T13:24:20.911Z,63.44
2018-03-15T13:26:48.911Z,63.69
2018-03-15T13:29:16.861Z,64.27
2018-03-15T13:31:44.772Z,64.11
2018-03-15T13:34:12.796Z,65.08
2018-03-15T13:36:40.735Z,65.33
2018-03-15T13:39:08.766Z,64.74
2018-03-15T13:41:36.681Z,63.85
2018-03-15T13:44:04.626Z,64.01
2018-03-15T13:46:32.580Z,64.04
2018-03-15T13:49:00.523Z,63.41
2018-03-15T13:51:28.675Z,63.37
2018-03-15T13:53:56.645Z,64.21
2018-03-15T13:56:24.573Z,63.73
2018-03-15T13:58:52.545Z,63.68
2018-03-15T14:01:20.557Z,64.14
2018-03-15T14:03:48.482Z,64.50
2018-03-15T14:06:16.492Z,66.94
2018-03-15T14:08:44.468Z,65.74
2018-03-15T14:11:12.489Z,64.49
2018-03-15T14:13:40.391Z,63.24
2018-03-15T14:16:08.394Z,64.24
2018-03-15T14:18:36.374Z,65.76
2018-03-15T14:21:04.344Z,64.52
2018-03-15T14:23:32.280Z,64.72
2018-03-15T14:26:00.198Z,63.49
2018-03-15T14:28:28.151Z,64.27
2018-03-15T14:30:56.117Z,64.85
2018-03-15T14:33:24.042Z,64.06
2018-03-15T14:35:51.973Z,65.95
2018-03-15T14:38:19.892Z,64.87
2018-03-15T14:40:47.883Z,65.00
2018-03-15T14:43:15.813Z,64.66
2018-03-15T14:45:43.762Z,65.94
2018-03-15T14:48:11.715Z,65.80
2018-03-15T14:50:39.746Z,65.34
2018-03-15T14:53:08.386Z,65.32
2018-03-15T14:55:36.286Z,65.28
2018-03-15T14:58:04.226Z,65.23
2018-03-15T15:00:32.154Z,65.28
2018-03-15T15:03:00.122Z,64.79
2018-03-15T15:05:28.151Z,65.50
2018-03-15T15:07:56.098Z,66.28
2018-03-15T15:10:24.020Z,68.07
2018-03-15T15:12:51.962Z,67.56
2018-03-15T15:15:19.899Z,66.04
2018-03-15T15:17:47.837Z,66.41
2018-03-15T15:20:15.851Z,66.94
2018-03-15T15:22:43.833Z,66.91
2018-03-15T15:25:11.813Z,66.82
2018-03-15T15:27:39.759Z,66.43
2018-03-15T15:30:07.666Z,67.66
2018-03-15T15:32:35.895Z,68.57
2018-03-15T15:35:03.794Z,67.20
2018-03-15T15:37:31.887Z,67.10
2018-03-15T15:40:00.745Z,66.78
2018-03-15T15:42:28.693Z,67.14
2018-03-15T15:44:56.615Z,66.88
2018-03-15T15:47:24.585Z,65.90
2018-03-15T15:49:52.530Z,66.88
2018-03-15T15:52:20.506Z,68.60
2018-03-15T15:54:48.458Z,66.69
2018-03-15T15:57:16.422Z,68.19
2018-03-15T15:59:44.430Z,67.50
2018-03-15T16:02:12.355Z,66.65
2018-03-15T16:04:40.479Z,66.97
2018-03-15T16:07:08.390Z,66.76
2018-03-15T16:09:36.362Z,67.89
2018-03-15T16:12:04.265Z,66.93
2018-03-15T16:14:32.178Z,67.70
2018-03-15T16:17:00.194Z,68.52
2018-03-15T16:19:28.123Z,69.29
2018-03-15T16:21:56.052Z,68.65
2018-03-15T16:24:23.979Z,68.27
2018-03-15T16:26:51.917Z,68.26
2018-03-15T16:29:19.845Z,68.59
2018-03-15T16:31:47.770Z,68.79
2018-03-15T16:34:15.705Z,69.02
2018-03-15T16:36:43.651Z,69.05
2018-03-15T16:39:11.668Z,68.78
2018-03-15T16:41:39.594Z,70.48
2018-03-15T16:44:07.576Z,70.48
2018-03-15T16:46:35.546Z,69.63
2018-03-15T16:49:03.515Z,70.06
2018-03-15T16:51:32.262Z,69.68
2018-03-15T16:54:00.175Z,69.81
2018-03-15T16:56:28.153Z,70.41
2018-03-15T16:58:56.274Z,70.60
2018-03-15T17:01:24.219Z,70.16
2018-03-15T17:03:52.180Z,70.93
2018-03-15T17:06:20.241Z,70.39
2018-03-15T17:08:48.162Z,71.94
2018-03-15T17:11:16.082Z,70.88
2018-03-15T17:13:44.061Z,71.08
2018-03-15T17:16:12.880Z,72.28
2018-03-15T17:18:41.353Z,72.16
2018-03-15T17:21:09.274Z,71.96
2018-03-15T17:23:37.210Z,72.10
2018-03-15T17:26:05.151Z,72.51
2018-03-15T17:28:33.106Z,73.51
2018-03-15T17:31:01.059Z,73.63
2018-03-15T17:33:29.017Z,73.72
2018-03-15T17:35:57.022Z,73.73
2018-03-15T17:38:24.956Z,73.50
2018-03-15T17:40:52.927Z,73.29
2018-03-15T17:43:20.912Z,73.51
2018-03-15T17:45:48.834Z,73.45
2018-03-15T17:48:16.822Z,72.77
2018-03-15T17:50:44.756Z,72.64
2018-03-15T17:53:12.655Z,72.54
2018-03-15T17:55:40.570Z,72.29
2018-03-15T17:58:08.505Z,72.35
2018-03-15T18:00:36.483Z,73.89
2018-03-15T18:03:04.473Z,73.51
2018-03-15T18:05:32.412Z,73.06
2018-03-15T18:08:00.384Z,73.24
2018-03-15T18:10:28.262Z,73.84
2018-03-15T18:12:56.232Z,72.95
2018-03-15T18:15:24.190Z,73.74
2018-03-15T18:17:52.095Z,73.90
2018-03-15T18:20:20.036Z,74.32
2018-03-15T18:22:47.938Z,75.31
2018-03-15T18:25:15.951Z,75.23
2018-03-15T18:27:43.843Z,75.02
2018-03-15T18:30:11.984Z,81.39
2018-03-15T18:32:39.901Z,78.47
2018-03-15T18:35:07.908Z,76.80
2018-03-15T18:37:35.836Z,78.00
2018-03-15T18:40:03.745Z,78.20
2018-03-15T18:42:31.661Z,78.09
2018-03-15T18:44:59.614Z,77.55
2018-03-15T18:47:27.613Z,78.40
2018-03-15T18:49:55.530Z,76.73
2018-03-15T18:52:23.449Z,77.96
2018-03-15T18:54:51.526Z,77.30
2018-03-15T18:57:19.481Z,77.76
2018-03-15T18:59:47.382Z,78.72
2018-03-15T19:02:15.298Z,77.44
2018-03-15T19:04:43.314Z,76.90
2018-03-15T19:07:11.388Z,77.15
2018-03-15T19:09:39.316Z,76.63
2018-03-15T19:12:07.235Z,77.84
2018-03-15T19:14:35.170Z,77.69
2018-03-15T19:17:03.303Z,78.03
2018-03-15T19:19:31.429Z,78.24
2018-03-15T19:21:59.392Z,78.83
2018-03-15T19:24:27.302Z,77.30
2018-03-15T19:26:55.213Z,78.37
2018-03-15T19:29:23.149Z,78.26
2018-03-15T19:31:51.185Z,78.51
2018-03-15T19:34:19.138Z,78.88
2018-03-15T19:36:47.135Z,77.20
2018-03-15T19:39:15.057Z,77.15
2018-03-15T19:41:43.059Z,77.73
2018-03-15T19:44:10.958Z,78.18
2018-03-15T19:46:38.881Z,77.63
2018-03-15T19:49:06.809Z,77.53
2018-03-15T19:51:35.619Z,78.72
2018-03-15T19:54:03.609Z,78.24
2018-03-15T19:56:31.559Z,78.13
2018-03-15T19:58:59.429Z,78.11
2018-03-15T20:01:28.189Z,77.33
2018-03-15T20:03:56.141Z,77.39
2018-03-15T20:06:24.056Z,80.04
2018-03-15T20:08:51.990Z,78.16
2018-03-15T20:11:19.909Z,77.66
2018-03-15T20:13:47.824Z,76.86
2018-03-15T20:16:15.761Z,76.56
2018-03-15T20:18:43.901Z,75.60
2018-03-15T20:21:11.821Z,76.37
2018-03-15T20:23:45.424Z,75.57
2018-03-15T20:26:13.362Z,76.05
2018-03-15T20:28:45.150Z,76.76
2018-03-15T20:31:13.308Z,76.58
2018-03-15T20:33:46.925Z,78.31
2018-03-15T20:36:14.897Z,78.09
2018-03-15T20:38:42.793Z,77.21
2018-03-15T20:41:16.447Z,78.40
2018-03-15T20:43:44.358Z,78.41
2018-03-15T20:46:17.979Z,77.98
2018-03-15T20:48:52.065Z,78.76
2018-03-15T20:51:27.767Z,78.40
2018-03-15T20:53:55.674Z,79.27
2018-03-15T20:56:23.729Z,78.66
2018-03-15T20:58:52.698Z,79.64
2018-03-15T21:01:20.598Z,79.68
2018-03-15T21:03:48.732Z,79.27
2018-03-15T21:06:17.232Z,77.90
2018-03-15T21:08:45.146Z,78.50
2018-03-15T21:11:13.077Z,79.25
2018-03-15T21:13:41.007Z,78.70
2018-03-15T21:16:09.066Z,77.77
2018-03-15T21:18:36.993Z,78.21
2018-03-15T21:21:04.916Z,78.05
2018-03-15T21:23:32.844Z,78.24
2018-03-15T21:26:00.813Z,78.48
2018-03-15T21:28:28.949Z,78.17
2018-03-15T21:30:56.893Z,77.70
2018-03-15T21:33:24.904Z,78.22
2018-03-15T21:35:52.846Z,78.07
2018-03-15T21:38:20.877Z,77.15
2018-03-15T21:40:48.813Z,77.97
2018-03-15T21:43:16.759Z,78.69
2018-03-15T21:45:44.723Z,77.81
2018-03-15T21:48:13.122Z,77.37
2018-03-15T21:50:41.053Z,77.90
2018-03-15T21:53:08.994Z,76.97
2018-03-15T21:55:37.318Z,77.40
2018-03-15T21:58:05.345Z,77.21
2018-03-15T22:00:33.293Z,77.63
2018-03-15T22:03:01.242Z,77.95
2018-03-15T22:05:29.203Z,77.63
2018-03-15T22:07:57.172Z,76.76
2018-03-15T22:10:25.102Z,76.53
2018-03-15T22:12:53.034Z,77.56
2018-03-15T22:15:21.232Z,77.18
2018-03-15T22:17:49.158Z,77.75
2018-03-15T22:20:17.062Z,76.51
2018-03-15T22:22:45.042Z,77.74
2018-03-15T22:25:12.966Z,77.29
2018-03-15T22:27:40.918Z,77.23
2018-03-15T22:30:08.841Z,77.64
2018-03-15T22:32:36.757Z,78.47
2018-03-15T22:35:04.769Z,76.80
2018-03-15T22:37:32.758Z,76.56
2018-03-15T22:40:00.836Z,77.30
2018-03-15T22:42:28.737Z,76.69
2018-03-15T22:44:56.679Z,78.21
2018-03-15T22:47:24.641Z,77.40
2018-03-15T22:49:52.585Z,76.19
2018-03-15T22:52:21.097Z,76.89
2018-03-15T22:54:49.049Z,76.73
2018-03-15T22:57:16.984Z,76.36
2018-03-15T22:59:44.968Z,75.84
2018-03-15T23:02:12.885Z,76.34
2018-03-15T23:04:40.986Z,77.18
2018-03-15T23:07:08.916Z,77.68
2018-03-15T23:09:36.841Z,77.99
2018-03-15T23:12:04.789Z,77.05
2018-03-15T23:14:32.772Z,76.35
2018-03-15T23:17:00.697Z,77.07
2018-03-15T23:19:28.751Z,77.64
2018-03-15T23:21:56.708Z,77.76
2018-03-15T23:24:24.661Z,76.76
2018-03-15T23:26:52.763Z,78.34
2018-03-15T23:29:20.750Z,77.09
2018-03-15T23:31:50.101Z,76.92
2018-03-15T23:34:18.019Z,75.83
2018-03-15T23:36:45.965Z,76.43
2018-03-15T23:39:13.966Z,76.32
2018-03-15T23:41:41.959Z,77.31
2018-03-15T23:44:09.925Z,76.29
2018-03-15T23:46:37.838Z,76.44
2018-03-15T23:49:05.796Z,76.42
2018-03-15T23:51:33.727Z,76.37
2018-03-15T23:54:01.697Z,75.88
2018-03-15T23:56:29.722Z,76.72
2018-03-15T23:58:57.887Z,76.50
